createdAt,value
2018-09-29T00:01:13.725Z,16.03
2018-09-29T00:05:17.595Z,15.93
2018-09-29T00:09:21.427Z,15.83
2018-09-29T00:13:25.358Z,15.77
2018-09-29T00:17:29.228Z,15.71
2018-09-29T00:21:33.304Z,15.63
2018-09-29T00:25:37.327Z,15.59
2018-09-29T00:29:41.185Z,15.52
2018-09-29T00:33:45.014Z,15.38
2018-09-29T00:37:48.858Z,15.24
2018-09-29T00:41:52.431Z,15.07
2018-09-29T00:45:55.962Z,14.99
2018-09-29T00:49:59.543Z,14.93
2018-09-29T00:54:03.166Z,14.85
2018-09-29T00:58:06.767Z,14.79
2018-09-29T01:02:10.295Z,14.68
2018-09-29T01:06:13.943Z,14.64
2018-09-29T01:10:17.513Z,14.61
2018-09-29T01:14:21.301Z,14.54
2018-09-29T01:18:24.813Z,14.47
2018-09-29T01:22:28.554Z,14.42
2018-09-29T01:26:32.084Z,14.37
2018-09-29T01:30:35.575Z,14.33
2018-09-29T01:34:39.098Z,14.27
2018-09-29T01:38:42.606Z,14.24
2018-09-29T01:42:46.235Z,14.22
2018-09-29T01:46:49.845Z,14.22
2018-09-29T01:50:53.316Z,14.19
2018-09-29T01:54:56.820Z,14.09
2018-09-29T01:59:00.390Z,14.02
2018-09-29T02:03:09.257Z,13.95
2018-09-29T02:07:12.751Z,13.95
2018-09-29T02:11:16.356Z,13.97
2018-09-29T02:15:19.955Z,13.96
2018-09-29T02:19:23.423Z,13.93
2018-09-29T02:23:26.966Z,13.94
2018-09-29T02:27:30.534Z,13.94
2018-09-29T02:31:34.082Z,13.91
2018-09-29T02:35:37.666Z,13.89
2018-09-29T02:39:41.208Z,13.88
2018-09-29T02:43:44.780Z,13.85
2018-09-29T02:47:48.396Z,13.83
2018-09-29T02:51:51.999Z,13.76
2018-09-29T02:55:55.472Z,13.73
2018-09-29T02:59:59.175Z,13.71
2018-09-29T03:04:02.894Z,13.66
2018-09-29T03:08:06.495Z,13.64
2018-09-29T03:12:10.115Z,13.64
2018-09-29T03:16:13.808Z,13.60
2018-09-29T03:20:17.339Z,13.59
2018-09-29T03:24:20.889Z,13.61
2018-09-29T03:28:24.357Z,13.58
2018-09-29T03:32:27.871Z,13.53
2018-09-29T03:36:31.410Z,13.50
2018-09-29T03:40:34.959Z,13.50
2018-09-29T03:44:38.496Z,13.46
2018-09-29T03:48:42.026Z,13.43
2018-09-29T03:52:45.604Z,13.36
2018-09-29T03:56:49.119Z,13.35
2018-09-29T04:00:52.695Z,13.33
2018-09-29T04:04:56.263Z,13.28
2018-09-29T04:09:00.021Z,13.25
2018-09-29T04:13:03.632Z,13.19
2018-09-29T04:17:07.215Z,13.16
2018-09-29T04:21:10.781Z,13.14
2018-09-29T04:25:14.358Z,13.15
2018-09-29T04:29:18.122Z,13.16
2018-09-29T04:33:21.637Z,13.09
2018-09-29T04:37:25.210Z,13.03
2018-09-29T04:41:28.753Z,12.98
2018-09-29T04:45:32.465Z,12.95
2018-09-29T04:49:36.125Z,12.92
2018-09-29T04:53:39.658Z,12.85
2018-09-29T04:57:43.294Z,12.79
2018-09-29T05:01:46.803Z,12.74
2018-09-29T05:05:50.314Z,12.68
2018-09-29T05:09:53.978Z,12.59
2018-09-29T05:13:57.596Z,12.54
2018-09-29T05:18:01.345Z,12.47
2018-09-29T05:22:05.478Z,12.46
2018-09-29T05:26:08.986Z,12.42
2018-09-29T05:30:13.263Z,12.46
2018-09-29T05:34:16.852Z,12.42
2018-09-29T05:38:20.541Z,12.36
2018-09-29T05:42:24.447Z,12.30
2018-09-29T05:46:28.078Z,12.18
2018-09-29T05:50:32.608Z,12.16
2018-09-29T05:54:36.102Z,12.14
2018-09-29T05:58:39.817Z,12.07
2018-09-29T06:02:43.865Z,12.02
2018-09-29T06:06:47.505Z,11.99
2018-09-29T06:10:51.156Z,12.00
2018-09-29T06:14:54.810Z,11.92
2018-09-29T06:18:58.374Z,11.95
2018-09-29T06:23:01.856Z,12.02
2018-09-29T06:27:05.403Z,12.13
2018-09-29T06:31:09.384Z,12.20
2018-09-29T06:35:13.053Z,12.25
2018-09-29T06:39:16.648Z,12.35
2018-09-29T06:43:20.173Z,12.35
2018-09-29T06:47:23.681Z,12.38
2018-09-29T06:51:27.258Z,12.36
2018-09-29T06:55:30.941Z,12.39
2018-09-29T06:59:34.553Z,12.38
2018-09-29T07:03:38.379Z,12.46
2018-09-29T07:07:42.038Z,12.52
2018-09-29T07:11:45.682Z,12.61
2018-09-29T07:15:49.325Z,12.65
2018-09-29T07:19:52.920Z,12.74
2018-09-29T07:23:56.518Z,12.87
2018-09-29T07:28:01.234Z,13.07
2018-09-29T07:32:05.273Z,13.13
2018-09-29T07:36:08.896Z,13.18
2018-09-29T07:40:12.466Z,13.31
2018-09-29T07:44:16.025Z,13.38
2018-09-29T07:48:19.611Z,13.39
2018-09-29T07:52:23.291Z,13.38
2018-09-29T07:56:26.813Z,13.32
2018-09-29T08:00:30.371Z,13.32
2018-09-29T08:04:33.884Z,13.42
2018-09-29T08:08:37.500Z,13.48
2018-09-29T08:12:41.034Z,13.51
2018-09-29T08:16:44.556Z,13.52
2018-09-29T08:20:48.167Z,13.51
2018-09-29T08:24:51.712Z,13.58
2018-09-29T08:28:55.198Z,13.64
2018-09-29T08:32:58.753Z,13.68
2018-09-29T08:37:02.333Z,13.74
2018-09-29T08:41:05.903Z,13.86
2018-09-29T08:45:09.513Z,13.97
2018-09-29T08:49:12.973Z,14.09
2018-09-29T08:53:16.569Z,14.19
2018-09-29T08:57:21.110Z,14.22
2018-09-29T09:01:24.626Z,14.23
2018-09-29T09:05:28.150Z,14.26
2018-09-29T09:09:31.958Z,14.31
2018-09-29T09:13:35.631Z,14.29
2018-09-29T09:17:39.145Z,14.30
2018-09-29T09:21:42.701Z,14.35
2018-09-29T09:25:46.256Z,14.41
2018-09-29T09:29:49.865Z,14.44
2018-09-29T09:33:53.348Z,14.45
2018-09-29T09:37:56.998Z,14.49
2018-09-29T09:42:00.742Z,14.53
2018-09-29T09:46:04.304Z,14.60
2018-09-29T09:50:07.914Z,14.65
2018-09-29T09:54:11.458Z,14.66
2018-09-29T09:58:14.988Z,14.75
2018-09-29T10:02:23.793Z,14.78
2018-09-29T10:06:27.603Z,14.80
2018-09-29T10:10:31.323Z,14.76
2018-09-29T10:14:35.041Z,14.82
2018-09-29T10:18:38.648Z,14.88
2018-09-29T10:22:42.199Z,14.96
2018-09-29T10:26:45.733Z,14.88
2018-09-29T10:30:49.359Z,14.93
2018-09-29T10:34:53.040Z,15.02
2018-09-29T10:38:56.537Z,15.14
2018-09-29T10:43:00.053Z,15.27
2018-09-29T10:47:03.823Z,15.28
2018-09-29T10:51:07.461Z,15.30
2018-09-29T10:55:11.021Z,15.31
2018-09-29T10:59:14.590Z,15.32
2018-09-29T11:03:18.174Z,15.34
2018-09-29T11:07:21.883Z,15.35
2018-09-29T11:11:25.445Z,15.37
2018-09-29T11:15:28.955Z,15.36
2018-09-29T11:19:33.080Z,15.42
2018-09-29T11:23:36.594Z,15.42
2018-09-29T11:27:40.148Z,15.37
2018-09-29T11:31:43.683Z,15.48
2018-09-29T11:35:47.323Z,15.58
2018-09-29T11:39:50.872Z,15.58
2018-09-29T11:43:54.370Z,15.60
2018-09-29T11:47:57.911Z,15.69
2018-09-29T11:52:01.415Z,15.75
2018-09-29T11:56:04.909Z,15.65
2018-09-29T12:00:08.434Z,15.60
2018-09-29T12:04:12.066Z,15.64
2018-09-29T12:08:15.587Z,15.72
2018-09-29T12:12:19.221Z,15.75
2018-09-29T12:16:22.871Z,15.80
2018-09-29T12:20:26.443Z,15.77
2018-09-29T12:24:31.019Z,15.78
2018-09-29T12:28:34.678Z,15.83
2018-09-29T12:32:38.230Z,15.80
2018-09-29T12:36:41.998Z,15.83
2018-09-29T12:40:45.536Z,15.81
2018-09-29T12:44:49.147Z,15.73
2018-09-29T12:48:52.542Z,15.70
2018-09-29T12:52:56.101Z,15.69
2018-09-29T12:56:59.671Z,15.68
2018-09-29T13:01:04.673Z,15.70
2018-09-29T13:05:08.510Z,15.70
2018-09-29T13:09:12.010Z,15.64
2018-09-29T13:13:16.807Z,15.55
2018-09-29T13:17:22.468Z,15.53
2018-09-29T13:21:26.095Z,15.51
2018-09-29T13:25:29.649Z,15.54
2018-09-29T13:29:33.191Z,15.53
2018-09-29T13:33:36.701Z,15.53
2018-09-29T13:37:40.221Z,15.50
2018-09-29T13:41:43.916Z,15.52
2018-09-29T13:45:47.478Z,15.51
2018-09-29T13:49:51.029Z,15.50
2018-09-29T13:53:54.578Z,15.49
2018-09-29T13:57:58.050Z,15.47
2018-09-29T14:02:03.946Z,15.44
2018-09-29T14:06:07.437Z,15.35
2018-09-29T14:10:10.958Z,15.32
2018-09-29T14:14:14.733Z,15.31
2018-09-29T14:18:18.213Z,15.27
2018-09-29T14:22:21.813Z,15.23
2018-09-29T14:26:25.393Z,15.25
2018-09-29T14:30:29.587Z,15.28
2018-09-29T14:34:33.136Z,15.30
2018-09-29T14:38:37.009Z,15.27
2018-09-29T14:42:40.455Z,15.22
2018-09-29T14:46:44.028Z,15.18
2018-09-29T14:50:47.826Z,15.18
2018-09-29T14:55:06.883Z,15.17
2018-09-29T14:59:10.662Z,15.17
2018-09-29T15:03:14.256Z,15.18
2018-09-29T15:07:18.020Z,15.16
2018-09-29T15:25:08.823Z,15.10
2018-09-29T15:29:13.201Z,15.12
2018-09-29T15:33:16.932Z,15.09
2018-09-29T15:37:20.656Z,15.08
2018-09-29T15:41:25.111Z,15.04
2018-09-29T15:45:28.816Z,15.05
2018-09-29T15:49:32.569Z,15.05
2018-09-29T15:53:42.701Z,14.98
2018-09-29T15:57:46.339Z,15.02
2018-09-29T16:01:50.036Z,15.00
2018-09-29T16:05:54.508Z,14.98
2018-09-29T16:09:58.150Z,14.96
2018-09-29T16:14:02.791Z,14.90
2018-09-29T16:18:06.357Z,14.91
2018-09-29T16:22:09.944Z,14.87
2018-09-29T16:26:14.172Z,14.84
2018-09-29T16:30:17.790Z,14.82
2018-09-29T16:34:22.342Z,14.83
2018-09-29T16:38:27.144Z,14.80
2018-09-29T16:42:31.133Z,14.79
2018-09-29T16:46:34.813Z,14.71
2018-09-29T16:59:31.145Z,14.61
2018-09-29T17:08:12.632Z,14.46
2018-09-29T17:12:16.666Z,14.38
2018-09-29T17:16:20.243Z,14.30
2018-09-29T17:20:44.069Z,14.21
2018-09-29T17:24:47.593Z,14.15
2018-09-29T17:28:52.006Z,14.10
2018-09-29T17:32:55.748Z,14.03
2018-09-29T17:36:59.256Z,13.95
2018-09-29T17:41:02.857Z,13.84
2018-09-29T17:45:06.512Z,13.71
2018-09-29T17:49:10.062Z,13.64
2018-09-29T17:53:13.560Z,13.58
2018-09-29T17:57:17.258Z,13.53
2018-09-29T18:01:21.699Z,13.47
2018-09-29T18:05:25.322Z,13.43
2018-09-29T18:09:28.809Z,13.36
2018-09-29T18:13:32.534Z,13.31
2018-09-29T18:17:38.087Z,13.26
2018-09-29T18:21:42.228Z,13.22
2018-09-29T18:25:46.392Z,13.16
2018-09-29T18:29:50.563Z,13.06
2018-09-29T19:06:23.269Z,12.33
2018-09-29T19:10:27.229Z,12.29
2018-09-29T19:14:30.868Z,12.24
2018-09-29T19:18:34.360Z,12.17
2018-09-29T19:22:37.902Z,12.15
2018-09-29T19:26:41.535Z,12.09
2018-09-29T19:30:45.419Z,12.01
2018-09-29T19:34:49.061Z,11.94
2018-09-29T19:38:52.569Z,11.88
2018-09-29T19:42:56.022Z,11.85
2018-09-29T19:46:59.502Z,11.81
2018-09-29T19:51:03.038Z,11.80
2018-09-29T19:55:06.881Z,11.77
2018-09-29T19:59:10.374Z,11.74
2018-09-29T20:03:14.192Z,11.68
2018-09-29T20:07:17.683Z,11.63
2018-09-29T20:11:21.210Z,11.60
2018-09-29T20:15:24.927Z,11.55
2018-09-29T20:19:28.458Z,11.50
2018-09-29T20:23:31.988Z,11.38
2018-09-29T20:27:35.550Z,11.33
2018-09-29T20:31:39.966Z,11.25
2018-09-29T20:35:43.467Z,11.17
2018-09-29T20:39:47.005Z,11.10
2018-09-29T20:43:50.810Z,11.03
2018-09-29T20:47:54.345Z,11.01
2018-09-29T20:51:57.834Z,10.97
2018-09-29T20:56:01.322Z,10.97
2018-09-29T21:00:05.978Z,10.95
2018-09-29T21:04:09.422Z,10.94
2018-09-29T21:08:13.204Z,10.91
2018-09-29T21:12:16.685Z,10.87
2018-09-29T21:16:20.144Z,10.85
2018-09-29T21:20:23.995Z,10.83
2018-09-29T21:24:27.474Z,10.81
2018-09-29T21:28:31.268Z,10.80
2018-09-29T21:32:34.717Z,10.75
2018-09-29T21:36:38.306Z,10.71
2018-09-29T21:40:41.695Z,10.68
2018-09-29T21:44:45.164Z,10.63
2018-09-29T21:48:48.597Z,10.61
2018-09-29T21:52:52.111Z,10.54
2018-09-29T21:56:55.537Z,10.47
2018-09-29T22:01:04.418Z,10.40
2018-09-29T22:05:08.839Z,10.34
2018-09-29T22:09:16.562Z,10.26
2018-09-29T22:13:20.032Z,10.20
2018-09-29T22:17:23.702Z,10.15
2018-09-29T22:21:27.203Z,10.08
2018-09-29T22:25:30.696Z,10.02
2018-09-29T22:29:34.273Z,10.00
2018-09-29T22:33:37.853Z,9.95
2018-09-29T22:37:41.552Z,9.91
2018-09-29T22:41:45.470Z,9.91
2018-09-29T22:45:49.306Z,9.91
2018-09-29T22:49:52.731Z,9.92
2018-09-29T22:53:56.201Z,9.88
2018-09-29T22:57:59.677Z,9.83
2018-09-29T23:02:03.253Z,9.76
2018-09-29T23:06:06.869Z,9.71
2018-09-29T23:10:10.537Z,9.69
2018-09-29T23:14:14.307Z,9.64
2018-09-29T23:18:18.116Z,9.60
2018-09-29T23:22:21.616Z,9.56
2018-09-29T23:26:25.061Z,9.54
2018-09-29T23:30:28.526Z,9.53
2018-09-29T23:34:31.993Z,9.53
2018-09-29T23:38:35.449Z,9.48
2018-09-29T23:42:39.001Z,9.39
2018-09-29T23:46:42.630Z,9.33
2018-09-29T23:50:46.122Z,9.28
2018-09-29T23:54:49.646Z,9.24
2018-09-29T23:58:53.213Z,9.18
